sensor_id;sensor_type;location;lat;lon;timestamp;P1;durP1;ratioP1;P2;durP2;ratioP2
25913;SDS011;13718;50.922;5.346;2023-10-19T00:01:14;14.70;;;9.18;;
25913;SDS011;13718;50.922;5.346;2023-10-19T00:03:41;15.25;;;9.32;;
25913;SDS011;13718;50.922;5.346;2023-10-19T00:06:09;16.00;;;9.45;;
25913;SDS011;13718;50.922;5.346;2023-10-19T00:08:35;15.60;;;9.50;;
25913;SDS011;13718;50.922;5.346;2023-10-19T00:11:01;16.02;;;9.18;;
25913;SDS011;13718;50.922;5.346;2023-10-19T00:13:34;17.92;;;9.20;;
25913;SDS011;13718;50.922;5.346;2023-10-19T00:16:03;20.73;;;8.82;;
25913;SDS011;13718;50.922;5.346;2023-10-19T00:18:56;14.40;;;8.27;;
25913;SDS011;13718;50.922;5.346;2023-10-19T00:21:25;13.80;;;8.50;;
25913;SDS011;13718;50.922;5.346;2023-10-19T00:23:55;17.88;;;8.82;;
25913;SDS011;13718;50.922;5.346;2023-10-19T00:26:25;17.42;;;9.00;;
25913;SDS011;13718;50.922;5.346;2023-10-19T00:28:52;12.65;;;7.68;;
25913;SDS011;13718;50.922;5.346;2023-10-19T00:31:25;14.48;;;8.43;;
25913;SDS011;13718;50.922;5.346;2023-10-19T00:33:52;14.45;;;7.97;;
25913;SDS011;13718;50.922;5.346;2023-10-19T00:36:19;13.75;;;6.82;;
25913;SDS011;13718;50.922;5.346;2023-10-19T00:38:46;12.40;;;7.10;;
25913;SDS011;13718;50.922;5.346;2023-10-19T00:41:15;12.05;;;6.50;;
25913;SDS011;13718;50.922;5.346;2023-10-19T00:43:48;11.77;;;5.97;;
25913;SDS011;13718;50.922;5.346;2023-10-19T00:46:22;8.85;;;5.28;;
25913;SDS011;13718;50.922;5.346;2023-10-19T00:48:56;14.15;;;5.03;;
25913;SDS011;13718;50.922;5.346;2023-10-19T00:51:27;10.50;;;3.95;;
25913;SDS011;13718;50.922;5.346;2023-10-19T00:54:15;13.98;;;4.30;;
25913;SDS011;13718;50.922;5.346;2023-10-19T00:56:51;12.95;;;4.03;;
25913;SDS011;13718;50.922;5.346;2023-10-19T00:59:20;9.65;;;3.10;;
25913;SDS011;13718;50.922;5.346;2023-10-19T01:01:52;7.82;;;2.35;;
25913;SDS011;13718;50.922;5.346;2023-10-19T01:04:20;9.80;;;2.65;;
25913;SDS011;13718;50.922;5.346;2023-10-19T01:06:50;11.93;;;3.00;;
25913;SDS011;13718;50.922;5.346;2023-10-19T01:09:34;13.90;;;2.80;;
25913;SDS011;13718;50.922;5.346;2023-10-19T01:12:01;8.35;;;2.90;;
25913;SDS011;13718;50.922;5.346;2023-10-19T01:17:42;9.27;;;2.17;;
25913;SDS011;13718;50.922;5.346;2023-10-19T01:22:47;8.52;;;1.77;;
25913;SDS011;13718;50.922;5.346;2023-10-19T01:25:14;13.35;;;2.10;;
25913;SDS011;13718;50.922;5.346;2023-10-19T01:27:49;12.57;;;2.03;;
25913;SDS011;13718;50.922;5.346;2023-10-19T01:30:19;8.60;;;1.73;;
25913;SDS011;13718;50.922;5.346;2023-10-19T01:32:45;10.40;;;2.05;;
25913;SDS011;13718;50.922;5.346;2023-10-19T01:35:10;5.65;;;1.40;;
25913;SDS011;13718;50.922;5.346;2023-10-19T01:37:36;8.65;;;1.77;;
25913;SDS011;13718;50.922;5.346;2023-10-19T01:40:03;8.40;;;1.92;;
25913;SDS011;13718;50.922;5.346;2023-10-19T01:42:29;9.38;;;2.10;;
25913;SDS011;13718;50.922;5.346;2023-10-19T01:44:55;9.07;;;1.50;;
25913;SDS011;13718;50.922;5.346;2023-10-19T01:47:21;8.90;;;1.60;;
25913;SDS011;13718;50.922;5.346;2023-10-19T01:49:47;10.10;;;1.92;;
25913;SDS011;13718;50.922;5.346;2023-10-19T01:52:17;8.90;;;2.88;;
25913;SDS011;13718;50.922;5.346;2023-10-19T01:54:43;11.18;;;2.05;;
25913;SDS011;13718;50.922;5.346;2023-10-19T01:57:08;5.78;;;1.58;;
25913;SDS011;13718;50.922;5.346;2023-10-19T01:59:34;10.77;;;1.60;;
25913;SDS011;13718;50.922;5.346;2023-10-19T02:02:00;9.68;;;1.40;;
25913;SDS011;13718;50.922;5.346;2023-10-19T02:04:27;10.27;;;1.88;;
25913;SDS011;13718;50.922;5.346;2023-10-19T02:06:53;6.47;;;2.63;;
25913;SDS011;13718;50.922;5.346;2023-10-19T02:09:19;10.90;;;2.03;;
25913;SDS011;13718;50.922;5.346;2023-10-19T02:11:59;7.95;;;1.60;;
25913;SDS011;13718;50.922;5.346;2023-10-19T02:14:27;6.65;;;1.08;;
25913;SDS011;13718;50.922;5.346;2023-10-19T02:16:56;4.68;;;1.40;;
25913;SDS011;13718;50.922;5.346;2023-10-19T02:19:24;7.18;;;1.23;;
25913;SDS011;13718;50.922;5.346;2023-10-19T02:21:58;11.23;;;1.60;;
25913;SDS011;13718;50.922;5.346;2023-10-19T02:24:29;9.07;;;1.77;;
25913;SDS011;13718;50.922;5.346;2023-10-19T02:26:55;8.18;;;1.38;;
25913;SDS011;13718;50.922;5.346;2023-10-19T02:29:21;7.95;;;1.27;;
25913;SDS011;13718;50.922;5.346;2023-10-19T02:31:48;12.18;;;1.60;;
25913;SDS011;13718;50.922;5.346;2023-10-19T02:34:14;5.90;;;1.60;;
25913;SDS011;13718;50.922;5.346;2023-10-19T02:36:40;11.25;;;1.65;;
25913;SDS011;13718;50.922;5.346;2023-10-19T02:39:08;8.13;;;1.42;;
25913;SDS011;13718;50.922;5.346;2023-10-19T02:41:36;10.57;;;1.45;;
25913;SDS011;13718;50.922;5.346;2023-10-19T02:44:12;8.93;;;1.60;;
25913;SDS011;13718;50.922;5.346;2023-10-19T02:46:51;10.68;;;2.30;;
25913;SDS011;13718;50.922;5.346;2023-10-19T02:49:23;8.88;;;2.08;;
25913;SDS011;13718;50.922;5.346;2023-10-19T02:51:51;10.05;;;1.63;;
25913;SDS011;13718;50.922;5.346;2023-10-19T02:54:21;8.27;;;2.08;;
25913;SDS011;13718;50.922;5.346;2023-10-19T02:56:50;9.67;;;1.50;;
25913;SDS011;13718;50.922;5.346;2023-10-19T02:59:22;6.95;;;1.30;;
25913;SDS011;13718;50.922;5.346;2023-10-19T03:01:50;6.47;;;1.55;;
25913;SDS011;13718;50.922;5.346;2023-10-19T03:04:26;11.02;;;1.55;;
25913;SDS011;13718;50.922;5.346;2023-10-19T03:06:53;9.07;;;1.60;;
25913;SDS011;13718;50.922;5.346;2023-10-19T03:09:21;6.05;;;1.80;;
25913;SDS011;13718;50.922;5.346;2023-10-19T03:11:48;9.10;;;1.60;;
25913;SDS011;13718;50.922;5.346;2023-10-19T03:14:18;12.55;;;2.50;;
25913;SDS011;13718;50.922;5.346;2023-10-19T03:16:44;9.55;;;1.63;;
25913;SDS011;13718;50.922;5.346;2023-10-19T03:19:10;12.15;;;2.45;;
25913;SDS011;13718;50.922;5.346;2023-10-19T03:21:38;11.02;;;1.60;;
25913;SDS011;13718;50.922;5.346;2023-10-19T03:24:08;10.80;;;1.60;;
25913;SDS011;13718;50.922;5.346;2023-10-19T03:26:39;12.65;;;1.85;;
25913;SDS011;13718;50.922;5.346;2023-10-19T03:29:13;10.88;;;1.73;;
25913;SDS011;13718;50.922;5.346;2023-10-19T03:31:41;11.38;;;1.88;;
25913;SDS011;13718;50.922;5.346;2023-10-19T03:34:10;12.05;;;2.22;;
25913;SDS011;13718;50.922;5.346;2023-10-19T03:36:41;8.07;;;1.70;;
25913;SDS011;13718;50.922;5.346;2023-10-19T03:39:07;15.15;;;1.67;;
25913;SDS011;13718;50.922;5.346;2023-10-19T03:41:36;8.88;;;1.95;;
25913;SDS011;13718;50.922;5.346;2023-10-19T03:44:04;7.38;;;1.63;;
25913;SDS011;13718;50.922;5.346;2023-10-19T03:46:30;8.98;;;2.10;;
25913;SDS011;13718;50.922;5.346;2023-10-19T03:48:59;15.52;;;2.00;;
25913;SDS011;13718;50.922;5.346;2023-10-19T03:54:23;13.57;;;1.80;;
25913;SDS011;13718;50.922;5.346;2023-10-19T03:56:50;11.48;;;1.98;;
25913;SDS011;13718;50.922;5.346;2023-10-19T03:59:17;11.82;;;2.38;;
25913;SDS011;13718;50.922;5.346;2023-10-19T04:01:43;12.60;;;2.45;;
25913;SDS011;13718;50.922;5.346;2023-10-19T04:04:09;16.60;;;2.30;;
25913;SDS011;13718;50.922;5.346;2023-10-19T04:06:35;16.23;;;2.90;;
25913;SDS011;13718;50.922;5.346;2023-10-19T04:09:02;17.83;;;2.67;;
25913;SDS011;13718;50.922;5.346;2023-10-19T04:11:30;16.83;;;2.80;;
25913;SDS011;13718;50.922;5.346;2023-10-19T04:14:13;13.80;;;2.47;;
25913;SDS011;13718;50.922;5.346;2023-10-19T04:16:42;14.10;;;2.70;;
25913;SDS011;13718;50.922;5.346;2023-10-19T04:19:08;17.13;;;2.75;;
25913;SDS011;13718;50.922;5.346;2023-10-19T04:21:35;12.13;;;2.45;;
25913;SDS011;13718;50.922;5.346;2023-10-19T04:24:04;15.25;;;2.45;;
25913;SDS011;13718;50.922;5.346;2023-10-19T04:26:36;16.20;;;3.00;;
25913;SDS011;13718;50.922;5.346;2023-10-19T04:29:02;17.13;;;2.47;;
25913;SDS011;13718;50.922;5.346;2023-10-19T04:31:51;17.15;;;2.70;;
25913;SDS011;13718;50.922;5.346;2023-10-19T04:34:20;15.85;;;2.53;;
25913;SDS011;13718;50.922;5.346;2023-10-19T04:36:49;13.82;;;2.72;;
25913;SDS011;13718;50.922;5.346;2023-10-19T04:39:15;16.63;;;2.92;;
25913;SDS011;13718;50.922;5.346;2023-10-19T04:41:44;15.10;;;2.58;;
25913;SDS011;13718;50.922;5.346;2023-10-19T04:44:10;14.20;;;3.30;;
25913;SDS011;13718;50.922;5.346;2023-10-19T04:46:36;13.48;;;2.40;;
25913;SDS011;13718;50.922;5.346;2023-10-19T04:49:02;13.88;;;2.40;;
25913;SDS011;13718;50.922;5.346;2023-10-19T04:51:31;11.57;;;2.15;;
25913;SDS011;13718;50.922;5.346;2023-10-19T04:53:56;17.20;;;2.22;;
25913;SDS011;13718;50.922;5.346;2023-10-19T04:56:22;12.98;;;2.25;;
25913;SDS011;13718;50.922;5.346;2023-10-19T04:58:48;10.38;;;2.42;;
25913;SDS011;13718;50.922;5.346;2023-10-19T05:01:14;16.83;;;2.65;;
25913;SDS011;13718;50.922;5.346;2023-10-19T05:03:40;16.70;;;2.78;;
25913;SDS011;13718;50.922;5.346;2023-10-19T05:06:06;11.95;;;2.65;;
25913;SDS011;13718;50.922;5.346;2023-10-19T05:08:34;17.13;;;2.80;;
25913;SDS011;13718;50.922;5.346;2023-10-19T05:11:01;15.45;;;2.55;;
25913;SDS011;13718;50.922;5.346;2023-10-19T05:13:28;17.92;;;3.05;;
25913;SDS011;13718;50.922;5.346;2023-10-19T05:15:55;21.50;;;2.92;;
25913;SDS011;13718;50.922;5.346;2023-10-19T05:18:21;11.30;;;2.22;;
25913;SDS011;13718;50.922;5.346;2023-10-19T05:20:47;12.80;;;2.38;;
25913;SDS011;13718;50.922;5.346;2023-10-19T05:23:14;11.60;;;2.65;;
25913;SDS011;13718;50.922;5.346;2023-10-19T05:25:40;15.23;;;3.00;;
25913;SDS011;13718;50.922;5.346;2023-10-19T05:28:06;20.38;;;2.45;;
25913;SDS011;13718;50.922;5.346;2023-10-19T05:30:33;12.63;;;2.50;;
25913;SDS011;13718;50.922;5.346;2023-10-19T05:33:00;14.95;;;2.35;;
25913;SDS011;13718;50.922;5.346;2023-10-19T05:35:28;15.20;;;2.45;;
25913;SDS011;13718;50.922;5.346;2023-10-19T05:37:54;24.15;;;2.58;;
25913;SDS011;13718;50.922;5.346;2023-10-19T05:40:23;13.82;;;2.30;;
25913;SDS011;13718;50.922;5.346;2023-10-19T05:42:54;15.55;;;2.20;;
25913;SDS011;13718;50.922;5.346;2023-10-19T05:45:21;17.88;;;2.47;;
25913;SDS011;13718;50.922;5.346;2023-10-19T05:47:47;15.52;;;2.85;;
25913;SDS011;13718;50.922;5.346;2023-10-19T05:50:12;16.33;;;2.78;;
25913;SDS011;13718;50.922;5.346;2023-10-19T05:52:40;16.33;;;2.38;;
25913;SDS011;13718;50.922;5.346;2023-10-19T05:55:07;11.93;;;2.65;;
25913;SDS011;13718;50.922;5.346;2023-10-19T05:57:35;14.57;;;3.13;;
25913;SDS011;13718;50.922;5.346;2023-10-19T06:00:05;13.63;;;2.35;;
25913;SDS011;13718;50.922;5.346;2023-10-19T06:02:38;15.45;;;2.78;;
25913;SDS011;13718;50.922;5.346;2023-10-19T06:07:35;13.98;;;2.53;;
25913;SDS011;13718;50.922;5.346;2023-10-19T06:10:01;7.35;;;1.98;;
25913;SDS011;13718;50.922;5.346;2023-10-19T06:12:30;11.63;;;2.25;;
25913;SDS011;13718;50.922;5.346;2023-10-19T06:14:56;14.95;;;2.30;;
25913;SDS011;13718;50.922;5.346;2023-10-19T06:17:22;23.52;;;2.80;;
25913;SDS011;13718;50.922;5.346;2023-10-19T06:19:48;11.38;;;3.17;;
25913;SDS011;13718;50.922;5.346;2023-10-19T06:22:14;14.50;;;2.88;;
25913;SDS011;13718;50.922;5.346;2023-10-19T06:24:41;7.50;;;1.23;;
25913;SDS011;13718;50.922;5.346;2023-10-19T06:27:08;17.52;;;1.35;;
25913;SDS011;13718;50.922;5.346;2023-10-19T06:29:34;6.95;;;1.50;;
25913;SDS011;13718;50.922;5.346;2023-10-19T06:32:00;10.18;;;1.48;;
25913;SDS011;13718;50.922;5.346;2023-10-19T06:34:25;12.63;;;1.45;;
25913;SDS011;13718;50.922;5.346;2023-10-19T06:36:52;6.10;;;1.85;;
25913;SDS011;13718;50.922;5.346;2023-10-19T06:39:19;7.78;;;1.40;;
25913;SDS011;13718;50.922;5.346;2023-10-19T06:41:45;16.48;;;1.40;;
25913;SDS011;13718;50.922;5.346;2023-10-19T06:44:11;12.25;;;1.55;;
25913;SDS011;13718;50.922;5.346;2023-10-19T06:46:38;7.75;;;1.48;;
25913;SDS011;13718;50.922;5.346;2023-10-19T06:49:04;13.82;;;1.60;;
25913;SDS011;13718;50.922;5.346;2023-10-19T06:51:30;8.13;;;1.52;;
25913;SDS011;13718;50.922;5.346;2023-10-19T06:53:57;12.90;;;1.50;;
25913;SDS011;13718;50.922;5.346;2023-10-19T06:56:23;13.98;;;1.60;;
25913;SDS011;13718;50.922;5.346;2023-10-19T06:58:49;7.35;;;1.30;;
25913;SDS011;13718;50.922;5.346;2023-10-19T07:01:14;12.25;;;1.85;;
25913;SDS011;13718;50.922;5.346;2023-10-19T07:03:41;9.95;;;1.63;;
25913;SDS011;13718;50.922;5.346;2023-10-19T07:06:07;8.45;;;1.20;;
25913;SDS011;13718;50.922;5.346;2023-10-19T07:08:38;11.95;;;1.80;;
25913;SDS011;13718;50.922;5.346;2023-10-19T07:11:07;8.52;;;1.02;;
25913;SDS011;13718;50.922;5.346;2023-10-19T07:13:33;16.58;;;1.67;;
25913;SDS011;13718;50.922;5.346;2023-10-19T07:15:58;5.95;;;1.55;;
25913;SDS011;13718;50.922;5.346;2023-10-19T07:18:24;12.27;;;1.65;;
25913;SDS011;13718;50.922;5.346;2023-10-19T07:20:51;11.05;;;1.55;;
25913;SDS011;13718;50.922;5.346;2023-10-19T07:23:18;12.73;;;2.20;;
25913;SDS011;13718;50.922;5.346;2023-10-19T07:25:46;11.65;;;1.63;;
25913;SDS011;13718;50.922;5.346;2023-10-19T07:28:18;8.02;;;1.30;;
25913;SDS011;13718;50.922;5.346;2023-10-19T07:30:44;13.65;;;1.55;;
25913;SDS011;13718;50.922;5.346;2023-10-19T07:33:11;10.15;;;1.85;;
25913;SDS011;13718;50.922;5.346;2023-10-19T07:35:45;14.80;;;1.63;;
25913;SDS011;13718;50.922;5.346;2023-10-19T07:38:15;8.15;;;1.92;;
25913;SDS011;13718;50.922;5.346;2023-10-19T07:40:41;10.50;;;1.70;;
25913;SDS011;13718;50.922;5.346;2023-10-19T07:43:08;7.40;;;1.30;;
25913;SDS011;13718;50.922;5.346;2023-10-19T07:45:35;5.25;;;1.48;;
25913;SDS011;13718;50.922;5.346;2023-10-19T07:48:02;7.15;;;1.33;;
25913;SDS011;13718;50.922;5.346;2023-10-19T07:50:34;11.00;;;1.80;;
25913;SDS011;13718;50.922;5.346;2023-10-19T07:53:01;9.40;;;1.48;;
25913;SDS011;13718;50.922;5.346;2023-10-19T07:55:27;9.07;;;1.58;;
25913;SDS011;13718;50.922;5.346;2023-10-19T07:57:53;7.97;;;1.20;;
25913;SDS011;13718;50.922;5.346;2023-10-19T08:00:19;10.88;;;1.17;;
25913;SDS011;13718;50.922;5.346;2023-10-19T08:02:46;8.48;;;1.63;;
25913;SDS011;13718;50.922;5.346;2023-10-19T08:05:15;10.32;;;1.13;;
25913;SDS011;13718;50.922;5.346;2023-10-19T08:07:45;8.15;;;1.33;;
25913;SDS011;13718;50.922;5.346;2023-10-19T08:10:15;10.52;;;1.42;;
25913;SDS011;13718;50.922;5.346;2023-10-19T08:12:42;7.53;;;1.10;;
25913;SDS011;13718;50.922;5.346;2023-10-19T08:15:09;10.68;;;1.60;;
25913;SDS011;13718;50.922;5.346;2023-10-19T08:17:40;5.05;;;1.10;;
25913;SDS011;13718;50.922;5.346;2023-10-19T08:20:07;6.63;;;1.45;;
25913;SDS011;13718;50.922;5.346;2023-10-19T08:22:36;8.30;;;1.35;;
25913;SDS011;13718;50.922;5.346;2023-10-19T08:25:02;6.30;;;0.88;;
25913;SDS011;13718;50.922;5.346;2023-10-19T08:27:29;12.55;;;1.52;;
25913;SDS011;13718;50.922;5.346;2023-10-19T08:29:56;10.85;;;1.60;;
25913;SDS011;13718;50.922;5.346;2023-10-19T08:32:21;8.48;;;1.45;;
25913;SDS011;13718;50.922;5.346;2023-10-19T08:34:47;8.48;;;1.33;;
25913;SDS011;13718;50.922;5.346;2023-10-19T08:37:13;12.35;;;2.25;;
25913;SDS011;13718;50.922;5.346;2023-10-19T08:39:39;9.25;;;1.52;;
25913;SDS011;13718;50.922;5.346;2023-10-19T08:42:05;4.93;;;1.50;;
25913;SDS011;13718;50.922;5.346;2023-10-19T08:44:31;12.30;;;1.33;;
25913;SDS011;13718;50.922;5.346;2023-10-19T08:46:58;8.75;;;1.48;;
25913;SDS011;13718;50.922;5.346;2023-10-19T08:49:24;10.27;;;1.95;;
25913;SDS011;13718;50.922;5.346;2023-10-19T08:51:51;8.57;;;1.50;;
25913;SDS011;13718;50.922;5.346;2023-10-19T08:54:19;8.90;;;1.20;;
25913;SDS011;13718;50.922;5.346;2023-10-19T08:56:45;10.77;;;1.73;;
25913;SDS011;13718;50.922;5.346;2023-10-19T08:59:12;14.85;;;1.42;;
25913;SDS011;13718;50.922;5.346;2023-10-19T09:01:40;6.38;;;1.17;;
25913;SDS011;13718;50.922;5.346;2023-10-19T09:04:09;9.10;;;1.70;;
25913;SDS011;13718;50.922;5.346;2023-10-19T09:06:39;10.85;;;1.17;;
25913;SDS011;13718;50.922;5.346;2023-10-19T09:09:11;10.93;;;1.95;;
25913;SDS011;13718;50.922;5.346;2023-10-19T09:11:50;10.52;;;1.88;;
25913;SDS011;13718;50.922;5.346;2023-10-19T09:14:30;7.13;;;1.33;;
25913;SDS011;13718;50.922;5.346;2023-10-19T09:17:08;6.28;;;1.00;;
25913;SDS011;13718;50.922;5.346;2023-10-19T09:22:05;10.27;;;1.45;;
25913;SDS011;13718;50.922;5.346;2023-10-19T09:24:47;9.50;;;1.30;;
25913;SDS011;13718;50.922;5.346;2023-10-19T09:27:16;12.90;;;1.40;;
25913;SDS011;13718;50.922;5.346;2023-10-19T09:29:42;9.10;;;1.30;;
25913;SDS011;13718;50.922;5.346;2023-10-19T09:32:08;8.43;;;1.20;;
25913;SDS011;13718;50.922;5.346;2023-10-19T09:34:34;9.25;;;1.70;;
25913;SDS011;13718;50.922;5.346;2023-10-19T09:37:01;7.82;;;1.42;;
25913;SDS011;13718;50.922;5.346;2023-10-19T09:39:29;11.82;;;1.83;;
25913;SDS011;13718;50.922;5.346;2023-10-19T09:42:02;9.65;;;1.05;;
25913;SDS011;13718;50.922;5.346;2023-10-19T09:44:30;9.50;;;1.48;;
25913;SDS011;13718;50.922;5.346;2023-10-19T09:47:03;11.43;;;1.10;;
25913;SDS011;13718;50.922;5.346;2023-10-19T09:49:34;7.28;;;1.15;;
25913;SDS011;13718;50.922;5.346;2023-10-19T09:52:00;15.25;;;1.55;;
25913;SDS011;13718;50.922;5.346;2023-10-19T09:54:32;10.30;;;1.30;;
25913;SDS011;13718;50.922;5.346;2023-10-19T09:57:10;7.35;;;1.40;;
25913;SDS011;13718;50.922;5.346;2023-10-19T09:59:41;10.60;;;1.50;;
25913;SDS011;13718;50.922;5.346;2023-10-19T10:02:12;11.68;;;1.98;;
25913;SDS011;13718;50.922;5.346;2023-10-19T10:04:40;6.25;;;1.08;;
25913;SDS011;13718;50.922;5.346;2023-10-19T10:07:07;7.18;;;1.38;;
25913;SDS011;13718;50.922;5.346;2023-10-19T10:09:35;14.30;;;1.55;;
25913;SDS011;13718;50.922;5.346;2023-10-19T10:12:21;12.70;;;1.60;;
25913;SDS011;13718;50.922;5.346;2023-10-19T10:15:01;12.68;;;1.50;;
25913;SDS011;13718;50.922;5.346;2023-10-19T10:17:34;7.22;;;1.17;;
25913;SDS011;13718;50.922;5.346;2023-10-19T10:20:28;7.82;;;1.45;;
25913;SDS011;13718;50.922;5.346;2023-10-19T10:25:44;10.90;;;1.55;;
25913;SDS011;13718;50.922;5.346;2023-10-19T10:28:13;4.68;;;0.90;;
25913;SDS011;13718;50.922;5.346;2023-10-19T10:36:06;10.80;;;2.30;;
25913;SDS011;13718;50.922;5.346;2023-10-19T10:38:33;8.43;;;1.55;;
25913;SDS011;13718;50.922;5.346;2023-10-19T10:41:00;10.38;;;1.50;;
25913;SDS011;13718;50.922;5.346;2023-10-19T10:43:28;17.38;;;2.60;;
25913;SDS011;13718;50.922;5.346;2023-10-19T10:46:05;14.15;;;1.30;;
25913;SDS011;13718;50.922;5.346;2023-10-19T10:48:40;13.48;;;1.88;;
25913;SDS011;13718;50.922;5.346;2023-10-19T10:51:14;10.20;;;1.27;;
25913;SDS011;13718;50.922;5.346;2023-10-19T10:53:43;7.85;;;1.63;;
25913;SDS011;13718;50.922;5.346;2023-10-19T10:56:11;9.02;;;1.35;;
25913;SDS011;13718;50.922;5.346;2023-10-19T10:58:37;11.52;;;1.80;;
25913;SDS011;13718;50.922;5.346;2023-10-19T11:01:02;17.08;;;1.77;;
25913;SDS011;13718;50.922;5.346;2023-10-19T11:03:28;10.35;;;1.38;;
25913;SDS011;13718;50.922;5.346;2023-10-19T11:05:55;11.10;;;1.60;;
25913;SDS011;13718;50.922;5.346;2023-10-19T11:08:27;10.73;;;1.25;;
25913;SDS011;13718;50.922;5.346;2023-10-19T11:10:53;13.15;;;1.60;;
25913;SDS011;13718;50.922;5.346;2023-10-19T11:13:23;17.75;;;2.22;;
25913;SDS011;13718;50.922;5.346;2023-10-19T11:15:50;8.27;;;1.92;;
25913;SDS011;13718;50.922;5.346;2023-10-19T11:21:08;5.65;;;1.40;;
25913;SDS011;13718;50.922;5.346;2023-10-19T11:26:03;6.90;;;1.20;;
25913;SDS011;13718;50.922;5.346;2023-10-19T11:28:30;10.52;;;1.95;;
25913;SDS011;13718;50.922;5.346;2023-10-19T11:31:10;9.48;;;1.25;;
25913;SDS011;13718;50.922;5.346;2023-10-19T11:34:02;8.65;;;1.60;;
25913;SDS011;13718;50.922;5.346;2023-10-19T11:36:28;8.63;;;1.60;;
25913;SDS011;13718;50.922;5.346;2023-10-19T11:38:54;8.07;;;1.98;;
25913;SDS011;13718;50.922;5.346;2023-10-19T11:41:20;10.07;;;1.50;;
25913;SDS011;13718;50.922;5.346;2023-10-19T11:43:45;8.52;;;1.55;;
25913;SDS011;13718;50.922;5.346;2023-10-19T11:46:12;9.38;;;1.38;;
25913;SDS011;13718;50.922;5.346;2023-10-19T11:48:39;5.22;;;0.98;;
25913;SDS011;13718;50.922;5.346;2023-10-19T11:51:07;10.88;;;1.70;;
25913;SDS011;13718;50.922;5.346;2023-10-19T11:53:34;15.25;;;2.88;;
25913;SDS011;13718;50.922;5.346;2023-10-19T11:56:08;28.02;;;2.58;;
25913;SDS011;13718;50.922;5.346;2023-10-19T11:58:34;7.75;;;1.23;;
25913;SDS011;13718;50.922;5.346;2023-10-19T12:01:02;9.85;;;1.38;;
25913;SDS011;13718;50.922;5.346;2023-10-19T12:03:30;6.43;;;1.10;;
25913;SDS011;13718;50.922;5.346;2023-10-19T12:05:56;7.55;;;1.00;;
25913;SDS011;13718;50.922;5.346;2023-10-19T12:08:22;8.60;;;1.20;;
25913;SDS011;13718;50.922;5.346;2023-10-19T12:10:49;10.90;;;1.10;;
25913;SDS011;13718;50.922;5.346;2023-10-19T12:13:15;8.55;;;1.63;;
25913;SDS011;13718;50.922;5.346;2023-10-19T12:15:42;5.00;;;1.00;;
25913;SDS011;13718;50.922;5.346;2023-10-19T12:18:16;7.55;;;1.50;;
25913;SDS011;13718;50.922;5.346;2023-10-19T12:20:45;12.32;;;1.30;;
25913;SDS011;13718;50.922;5.346;2023-10-19T12:23:11;8.90;;;1.10;;
25913;SDS011;13718;50.922;5.346;2023-10-19T12:25:36;7.47;;;1.00;;
25913;SDS011;13718;50.922;5.346;2023-10-19T12:28:03;7.72;;;1.00;;
25913;SDS011;13718;50.922;5.346;2023-10-19T12:30:29;6.68;;;1.20;;
25913;SDS011;13718;50.922;5.346;2023-10-19T12:33:01;11.98;;;1.58;;
25913;SDS011;13718;50.922;5.346;2023-10-19T12:35:36;9.48;;;1.20;;
25913;SDS011;13718;50.922;5.346;2023-10-19T12:38:14;7.45;;;1.73;;
25913;SDS011;13718;50.922;5.346;2023-10-19T12:40:44;4.90;;;1.52;;
25913;SDS011;13718;50.922;5.346;2023-10-19T12:43:11;8.73;;;2.10;;
25913;SDS011;13718;50.922;5.346;2023-10-19T12:45:38;13.18;;;1.42;;
25913;SDS011;13718;50.922;5.346;2023-10-19T12:48:05;11.45;;;1.80;;
25913;SDS011;13718;50.922;5.346;2023-10-19T12:50:31;7.45;;;1.83;;
25913;SDS011;13718;50.922;5.346;2023-10-19T12:52:59;10.40;;;1.80;;
25913;SDS011;13718;50.922;5.346;2023-10-19T12:55:25;6.07;;;1.40;;
25913;SDS011;13718;50.922;5.346;2023-10-19T12:57:56;14.73;;;2.00;;
25913;SDS011;13718;50.922;5.346;2023-10-19T13:00:22;5.38;;;1.92;;
25913;SDS011;13718;50.922;5.346;2023-10-19T13:02:53;5.78;;;1.88;;
25913;SDS011;13718;50.922;5.346;2023-10-19T13:05:28;9.77;;;2.40;;
25913;SDS011;13718;50.922;5.346;2023-10-19T13:07:57;9.32;;;1.80;;
25913;SDS011;13718;50.922;5.346;2023-10-19T13:10:27;7.32;;;2.08;;
25913;SDS011;13718;50.922;5.346;2023-10-19T13:12:53;5.60;;;1.60;;
25913;SDS011;13718;50.922;5.346;2023-10-19T13:15:19;5.63;;;2.05;;
25913;SDS011;13718;50.922;5.346;2023-10-19T13:17:47;6.57;;;1.90;;
25913;SDS011;13718;50.922;5.346;2023-10-19T13:20:13;9.15;;;1.95;;
25913;SDS011;13718;50.922;5.346;2023-10-19T13:22:42;9.82;;;2.22;;
25913;SDS011;13718;50.922;5.346;2023-10-19T13:25:09;13.77;;;1.67;;
25913;SDS011;13718;50.922;5.346;2023-10-19T13:27:38;8.68;;;1.73;;
25913;SDS011;13718;50.922;5.346;2023-10-19T13:30:06;8.50;;;1.55;;
25913;SDS011;13718;50.922;5.346;2023-10-19T13:32:35;6.65;;;1.80;;
25913;SDS011;13718;50.922;5.346;2023-10-19T13:35:01;12.60;;;2.00;;
25913;SDS011;13718;50.922;5.346;2023-10-19T13:37:26;8.48;;;1.92;;
25913;SDS011;13718;50.922;5.346;2023-10-19T13:39:53;8.68;;;1.52;;
25913;SDS011;13718;50.922;5.346;2023-10-19T13:42:19;5.50;;;1.88;;
25913;SDS011;13718;50.922;5.346;2023-10-19T13:44:46;7.30;;;1.63;;
25913;SDS011;13718;50.922;5.346;2023-10-19T13:47:12;8.52;;;1.50;;
25913;SDS011;13718;50.922;5.346;2023-10-19T13:49:37;7.97;;;1.75;;
25913;SDS011;13718;50.922;5.346;2023-10-19T13:52:03;15.63;;;2.53;;
25913;SDS011;13718;50.922;5.346;2023-10-19T13:54:33;6.90;;;1.73;;
25913;SDS011;13718;50.922;5.346;2023-10-19T13:57:03;10.80;;;2.33;;
25913;SDS011;13718;50.922;5.346;2023-10-19T13:59:28;7.22;;;2.17;;
25913;SDS011;13718;50.922;5.346;2023-10-19T14:01:54;9.77;;;2.10;;
25913;SDS011;13718;50.922;5.346;2023-10-19T14:04:20;12.65;;;2.30;;
25913;SDS011;13718;50.922;5.346;2023-10-19T14:06:45;8.15;;;2.05;;
25913;SDS011;13718;50.922;5.346;2023-10-19T14:09:14;14.73;;;2.60;;
25913;SDS011;13718;50.922;5.346;2023-10-19T14:11:40;13.48;;;2.35;;
25913;SDS011;13718;50.922;5.346;2023-10-19T14:14:05;6.20;;;1.90;;
25913;SDS011;13718;50.922;5.346;2023-10-19T14:16:32;4.97;;;1.75;;
25913;SDS011;13718;50.922;5.346;2023-10-19T14:18:57;6.88;;;2.20;;
25913;SDS011;13718;50.922;5.346;2023-10-19T14:21:23;10.05;;;2.10;;
25913;SDS011;13718;50.922;5.346;2023-10-19T14:23:51;8.30;;;2.33;;
25913;SDS011;13718;50.922;5.346;2023-10-19T14:26:19;5.63;;;1.95;;
25913;SDS011;13718;50.922;5.346;2023-10-19T14:28:44;9.20;;;2.42;;
25913;SDS011;13718;50.922;5.346;2023-10-19T14:31:10;10.80;;;2.58;;
25913;SDS011;13718;50.922;5.346;2023-10-19T14:33:37;8.15;;;2.20;;
25913;SDS011;13718;50.922;5.346;2023-10-19T14:36:03;15.63;;;2.58;;
25913;SDS011;13718;50.922;5.346;2023-10-19T14:38:29;7.80;;;2.05;;
25913;SDS011;13718;50.922;5.346;2023-10-19T14:40:55;7.65;;;2.20;;
25913;SDS011;13718;50.922;5.346;2023-10-19T14:43:20;8.70;;;2.47;;
25913;SDS011;13718;50.922;5.346;2023-10-19T14:45:46;7.10;;;3.00;;
25913;SDS011;13718;50.922;5.346;2023-10-19T14:48:11;12.95;;;2.53;;
25913;SDS011;13718;50.922;5.346;2023-10-19T14:50:38;11.95;;;2.60;;
25913;SDS011;13718;50.922;5.346;2023-10-19T14:53:04;6.22;;;2.25;;
25913;SDS011;13718;50.922;5.346;2023-10-19T14:55:29;9.82;;;2.70;;
25913;SDS011;13718;50.922;5.346;2023-10-19T14:57:55;11.68;;;2.60;;
25913;SDS011;13718;50.922;5.346;2023-10-19T15:00:21;8.77;;;2.40;;
25913;SDS011;13718;50.922;5.346;2023-10-19T15:02:51;9.05;;;2.47;;
25913;SDS011;13718;50.922;5.346;2023-10-19T15:05:26;9.25;;;2.40;;
25913;SDS011;13718;50.922;5.346;2023-10-19T15:07:52;9.57;;;2.30;;
25913;SDS011;13718;50.922;5.346;2023-10-19T15:10:20;5.63;;;2.42;;
25913;SDS011;13718;50.922;5.346;2023-10-19T15:12:50;12.88;;;2.63;;
25913;SDS011;13718;50.922;5.346;2023-10-19T15:15:16;6.10;;;2.58;;